Time;durP1;ratioP1;P1;durP2;ratioP2;P2;SDS_P1;SDS_P2;PMS_P1;PMS_P2;Temp;Humidity;BMP_temperature;BMP_pressure;BME280_temperature;BME280_humidity;BME280_pressure;Samples;Min_cycle;Max_cycle;Signal;HPM_P1;HPM_P2
2022/05/16 00:00:23;;;;;;;6.90;4.30;;;;;;;15.70;60.79;93919.59;4913651;29;20501;-50
2022/05/16 00:02:50;;;;;;;7.43;4.10;;;;;;;15.38;62.02;93913.16;4914118;29;20044;-50
2022/05/16 00:05:17;;;;;;;9.67;4.83;;;;;;;15.60;60.46;93912.44;4912480;29;20107;-53
2022/05/16 00:07:46;;;;;;;6.60;4.10;;;;;;;15.77;59.83;93922.13;4914093;29;20048;-51
2022/05/16 00:10:13;;;;;;;6.75;3.83;;;;;;;15.87;59.38;93912.66;4913716;29;20048;-51
2022/05/16 00:12:40;;;;;;;7.90;4.00;;;;;;;15.97;59.53;93911.50;4913037;29;20060;-49
2022/05/16 00:15:09;;;;;;;6.38;3.67;;;;;;;16.04;59.43;93916.03;4906771;29;20063;-51
2022/05/16 00:17:36;;;;;;;6.70;3.67;;;;;;;16.09;59.21;93907.13;4917158;29;20769;-47
2022/05/16 00:20:03;;;;;;;4.75;3.30;;;;;;;16.18;58.98;93907.19;4918073;29;20052;-49
2022/05/16 00:22:30;;;;;;;5.15;3.70;;;;;;;15.85;61.32;93908.81;4917338;29;20048;-49
2022/05/16 00:24:57;;;;;;;6.53;4.15;;;;;;;15.21;63.26;93926.34;4917769;29;20044;-49
2022/05/16 00:27:24;;;;;;;5.72;3.90;;;;;;;15.09;63.29;93927.16;4917256;29;20056;-48
2022/05/16 00:29:50;;;;;;;7.20;4.20;;;;;;;15.23;62.54;93921.19;4917717;29;20051;-52
2022/05/16 00:32:18;;;;;;;10.13;6.80;;;;;;;15.35;61.76;93925.91;4917071;29;20083;-52
2022/05/16 00:34:45;;;;;;;6.20;4.10;;;;;;;15.48;60.70;93917.56;4913851;29;20486;-46
2022/05/16 00:37:12;;;;;;;7.05;3.80;;;;;;;15.58;60.16;93924.72;4908983;29;20057;-47
2022/05/16 00:39:39;;;;;;;6.18;4.03;;;;;;;15.76;59.92;93928.91;4898565;29;20070;-48
2022/05/16 00:42:05;;;;;;;7.93;3.97;;;;;;;15.82;59.41;93921.56;4898676;29;20045;-49
2022/05/16 00:44:33;;;;;;;6.45;3.92;;;;;;;15.94;59.22;93920.72;4898053;29;20044;-49
2022/05/16 00:46:59;;;;;;;10.02;3.88;;;;;;;15.98;59.17;93915.06;4898384;29;20032;-51
2022/05/16 00:49:29;;;;;;;5.72;3.60;;;;;;;16.10;59.00;93914.22;4898004;29;20044;-48
2022/05/16 00:51:56;;;;;;;7.00;3.65;;;;;;;16.15;58.74;93907.31;4898397;29;20063;-46
2022/05/16 00:54:34;;;;;;;6.47;4.10;;;;;;;16.17;59.26;93913.94;4898089;29;20040;-45
2022/05/16 00:57:08;;;;;;;6.78;3.90;;;;;;;15.93;60.52;93918.41;4898493;29;20040;-48
2022/05/16 00:59:43;;;;;;;5.43;3.60;;;;;;;15.88;60.94;93913.47;4897276;29;20896;-51
2022/05/16 01:04:57;;;;;;;5.60;3.90;;;;;;;15.85;61.64;93919.88;4898356;29;20066;-48
2022/05/16 01:07:32;;;;;;;5.93;4.10;;;;;;;15.79;61.97;93916.91;4897830;29;20048;-50
2022/05/16 01:09:59;;;;;;;6.47;4.35;;;;;;;15.74;61.95;93931.34;4898174;29;20051;-50
2022/05/16 01:12:33;;;;;;;5.57;4.00;;;;;;;15.90;61.15;93922.84;4911844;29;20041;-52
2022/05/16 01:15:04;;;;;;;6.78;4.50;;;;;;;15.68;61.97;93935.88;4898153;29;20040;-47
2022/05/16 01:17:31;;;;;;;6.60;4.22;;;;;;;15.28;63.48;93939.94;4897470;29;20048;-53
2022/05/16 01:19:58;;;;;;;5.93;4.50;;;;;;;15.15;64.31;93937.22;4898058;29;20044;-46
2022/05/16 01:22:43;;;;;;;5.88;4.28;;;;;;;15.15;64.31;93937.22;4897072;29;20402;-52
2022/05/16 01:25:16;;;;;;;8.50;4.60;;;;;;;15.34;63.77;93935.41;4914080;29;20083;-47
2022/05/16 01:27:53;;;;;;;10.23;4.32;;;;;;;15.54;62.78;93928.84;4916592;29;20075;-51
2022/05/16 01:30:23;;;;;;;6.75;4.22;;;;;;;15.69;62.00;93931.88;4916121;29;20048;-53
2022/05/16 01:32:50;;;;;;;6.63;3.90;;;;;;;15.81;62.42;93939.38;4915750;29;20074;-48
2022/05/16 01:35:23;;;;;;;6.90;4.30;;;;;;;15.88;62.26;93939.13;4910571;29;20070;-50
2022/05/16 01:40:36;;;;;;;6.82;4.40;;;;;;;15.40;63.62;93945.91;4896560;29;21758;-49
2022/05/16 01:43:03;;;;;;;8.02;4.80;;;;;;;15.41;63.45;93956.50;4897364;29;20067;-49
2022/05/16 01:45:30;;;;;;;6.80;4.70;;;;;;;15.53;63.52;93949.41;4896904;29;20056;-49
2022/05/16 01:47:57;;;;;;;8.38;4.50;;;;;;;15.56;63.04;93946.53;4897472;29;20059;-50
2022/05/16 01:50:24;;;;;;;7.15;4.70;;;;;;;15.44;64.02;93954.84;4896863;29;20053;-52
2022/05/16 01:52:51;;;;;;;6.75;4.30;;;;;;;15.52;63.84;93942.34;4897416;29;20501;-48
2022/05/16 01:55:18;;;;;;;8.70;4.43;;;;;;;15.55;63.79;93944.19;4896916;29;20383;-51
2022/05/16 01:57:45;;;;;;;6.83;4.77;;;;;;;15.52;63.96;93954.16;4897304;29;20096;-52
2022/05/16 02:00:14;;;;;;;7.13;4.60;;;;;;;15.51;64.00;93947.09;4896811;29;20068;-53
2022/05/16 02:02:42;;;;;;;13.50;8.73;;;;;;;15.53;63.77;93955.72;4897108;29;20052;-52
2022/05/16 02:05:15;;;;;;;8.70;6.05;;;;;;;15.53;63.92;93941.91;4896473;29;20044;-46
2022/05/16 02:07:42;;;;;;;7.55;4.68;;;;;;;15.59;63.76;93942.06;4897038;29;20049;-50
2022/05/16 02:10:10;;;;;;;7.23;4.63;;;;;;;15.59;64.28;93933.78;4897113;29;20052;-46
2022/05/16 02:12:37;;;;;;;7.55;4.63;;;;;;;15.57;63.71;93937.00;4896238;29;20834;-49
2022/05/16 02:15:08;;;;;;;7.00;4.82;;;;;;;15.56;63.82;93926.38;4896666;29;20051;-52
2022/05/16 02:17:35;;;;;;;7.40;4.45;;;;;;;15.52;64.19;93932.03;4896018;29;20947;-47
2022/05/16 02:20:02;;;;;;;6.80;4.22;;;;;;;15.54;63.98;93918.53;4896662;29;20059;-50
2022/05/16 02:25:15;;;;;;;6.00;4.00;;;;;;;15.41;64.92;93925.31;4914000;29;20453;-52
2022/05/16 02:27:47;;;;;;;6.28;4.45;;;;;;;15.44;65.02;93916.13;4915693;29;20044;-49
2022/05/16 02:30:14;;;;;;;7.80;4.40;;;;;;;15.41;65.13;93931.63;4915004;29;20075;-50
2022/05/16 02:32:41;;;;;;;7.78;5.00;;;;;;;14.95;66.77;93929.16;4914183;29;20484;-53
2022/05/16 02:35:09;;;;;;;9.33;4.67;;;;;;;14.55;68.71;93934.34;4905747;29;20051;-50
2022/05/16 02:37:36;;;;;;;8.65;4.80;;;;;;;14.49;69.41;93938.88;4907746;29;21662;-50
2022/05/16 02:40:05;;;;;;;7.32;4.90;;;;;;;14.81;68.02;93946.19;4915246;29;20111;-49
2022/05/16 02:42:32;;;;;;;6.45;4.13;;;;;;;15.09;67.25;93943.72;4914982;29;20050;-53
2022/05/16 02:44:59;;;;;;;7.13;4.60;;;;;;;15.25;66.60;93942.81;4915144;29;20052;-48
2022/05/16 02:47:26;;;;;;;15.37;5.60;;;;;;;15.32;66.36;93942.59;4913448;29;20044;-49
2022/05/16 02:49:52;;;;;;;9.10;5.72;;;;;;;15.36;66.38;93948.78;4915344;29;20047;-49
2022/05/16 02:52:19;;;;;;;8.23;5.88;;;;;;;15.40;66.65;93954.22;4914465;29;20044;-53
2022/05/16 02:54:46;;;;;;;9.90;6.43;;;;;;;15.44;66.32;93952.09;4914905;29;20036;-50
2022/05/16 02:57:13;;;;;;;7.53;4.90;;;;;;;15.29;66.80;93957.31;4914603;29;20040;-48
2022/05/16 02:59:40;;;;;;;7.23;4.03;;;;;;;15.11;67.58;93952.34;4915053;29;20056;-49
2022/05/16 03:02:09;;;;;;;6.38;4.45;;;;;;;15.21;67.24;93947.69;4914933;29;20040;-49
2022/05/16 03:04:38;;;;;;;7.28;4.80;;;;;;;15.33;66.90;93949.66;4914092;29;20280;-46
2022/05/16 03:07:05;;;;;;;8.27;4.85;;;;;;;15.32;66.83;93950.91;4914888;29;20055;-50
2022/05/16 03:09:33;;;;;;;6.90;4.85;;;;;;;15.26;66.87;93945.16;4914185;29;20050;-48
2022/05/16 03:12:01;;;;;;;6.83;4.57;;;;;;;15.31;66.95;93946.56;4914856;29;20082;-49
2022/05/16 03:14:28;;;;;;;9.68;5.30;;;;;;;15.32;66.73;93946.13;4912860;29;20047;-49
2022/05/16 03:16:55;;;;;;;7.75;4.97;;;;;;;15.11;67.63;93944.84;4914504;29;20080;-52
2022/05/16 03:19:22;;;;;;;7.70;4.97;;;;;;;15.14;67.74;93941.19;4914239;29;20423;-48
2022/05/16 03:21:48;;;;;;;7.60;5.18;;;;;;;15.21;67.42;93942.94;4914719;29;20048;-48
2022/05/16 03:24:15;;;;;;;8.67;4.97;;;;;;;15.26;67.44;93941.63;4914173;29;20043;-50
2022/05/16 03:26:42;;;;;;;8.60;5.05;;;;;;;14.96;68.53;93943.75;4914385;29;20048;-49
2022/05/16 03:29:13;;;;;;;9.07;5.25;;;;;;;14.84;68.97;93944.53;4914200;29;20131;-52
2022/05/16 03:31:41;;;;;;;9.25;5.28;;;;;;;14.62;69.83;93936.91;4913474;29;20793;-52
2022/05/16 03:34:11;;;;;;;9.40;5.10;;;;;;;14.80;69.14;93933.59;4910641;29;20043;-49
2022/05/16 03:36:38;;;;;;;8.77;5.10;;;;;;;14.62;69.88;93934.13;4905584;29;21650;-47
2022/05/16 03:41:51;;;;;;;10.00;5.00;;;;;;;14.84;68.90;93941.78;4894803;29;20750;-47
2022/05/16 03:44:19;;;;;;;7.47;5.00;;;;;;;14.90;68.59;93946.28;4894814;29;20067;-49
2022/05/16 03:46:46;;;;;;;10.02;5.53;;;;;;;14.96;68.67;93949.28;4894737;29;20071;-51
2022/05/16 03:49:13;;;;;;;9.53;5.80;;;;;;;14.60;69.49;93944.09;4894922;29;20044;-47
2022/05/16 03:51:40;;;;;;;9.02;5.55;;;;;;;14.47;70.48;93941.28;4895231;29;20054;-52
2022/05/16 03:54:08;;;;;;;7.47;5.20;;;;;;;14.72;69.36;93948.84;4895293;29;20045;-51
2022/05/16 03:56:34;;;;;;;11.48;5.55;;;;;;;14.91;69.85;93950.63;4894442;29;20505;-47
2022/05/16 03:59:01;;;;;;;10.75;5.70;;;;;;;15.00;71.38;93944.41;4895188;29;20044;-47
2022/05/16 04:01:28;;;;;;;10.90;5.73;;;;;;;14.89;70.66;93955.00;4894832;29;20056;-47
2022/05/16 04:03:55;;;;;;;8.43;5.68;;;;;;;14.82;70.92;93955.25;4895478;29;20607;-53
2022/05/16 04:06:22;;;;;;;9.50;5.60;;;;;;;14.81;71.70;93962.78;4894844;29;20047;-50
2022/05/16 04:08:49;;;;;;;12.15;6.00;;;;;;;14.80;73.60;93975.03;4895294;29;20405;-51
2022/05/16 04:11:17;;;;;;;10.38;5.95;;;;;;;14.80;74.02;93975.03;4908930;29;20048;-49
2022/05/16 04:13:45;;;;;;;9.83;5.77;;;;;;;14.90;74.03;93967.63;4895204;29;20045;-49
2022/05/16 04:16:12;;;;;;;9.38;6.13;;;;;;;14.96;74.68;93971.38;4894330;29;20075;-50
2022/05/16 04:18:41;;;;;;;9.82;5.63;;;;;;;15.03;74.41;93973.16;4894859;29;20037;-49
2022/05/16 04:21:08;;;;;;;8.65;6.10;;;;;;;15.11;74.82;93974.47;4895073;29;20433;-49
2022/05/16 04:23:35;;;;;;;13.30;6.68;;;;;;;14.92;77.36;93968.72;4898904;29;20769;-53
2022/05/16 04:26:02;;;;;;;11.13;6.73;;;;;;;14.97;76.81;93965.41;4913912;29;20040;-50
2022/05/16 04:28:29;;;;;;;10.65;5.82;;;;;;;15.08;76.54;93954.03;4913494;29;20048;-53
2022/05/16 04:30:55;;;;;;;10.00;5.90;;;;;;;15.09;77.87;93963.06;4928393;29;20056;-52
2022/05/16 04:33:23;;;;;;;11.90;5.95;;;;;;;15.08;78.17;93969.84;4913595;29;20040;-49
2022/05/16 04:35:50;;;;;;;10.15;6.07;;;;;;;14.92;77.68;93973.50;4905628;29;20051;-50
2022/05/16 04:38:16;;;;;;;11.03;7.07;;;;;;;14.84;78.87;93983.22;4908708;29;20422;-50
2022/05/16 04:43:29;;;;;;;9.40;6.43;;;;;;;15.00;77.79;93993.38;4894595;29;20040;-53
2022/05/16 04:45:55;;;;;;;10.52;6.28;;;;;;;14.99;76.35;93998.16;4894635;29;20048;-50
2022/05/16 04:48:22;;;;;;;16.63;10.82;;;;;;;15.04;75.75;94008.63;4894160;29;20044;-49
2022/05/16 04:50:49;;;;;;;14.20;8.43;;;;;;;15.08;76.99;93998.25;4894735;29;20581;-53
2022/05/16 04:53:16;;;;;;;18.42;10.52;;;;;;;15.07;79.22;94002.25;4894203;29;20458;-51
2022/05/16 04:55:43;;;;;;;18.70;10.07;;;;;;;14.93;79.47;94006.22;4894950;29;20045;-51
2022/05/16 04:58:10;;;;;;;11.40;6.80;;;;;;;14.96;79.97;94015.59;4896073;29;20056;-47
2022/05/16 05:00:36;;;;;;;9.95;6.18;;;;;;;14.93;79.80;94014.50;4898000;29;20506;-49
2022/05/16 05:03:03;;;;;;;7.33;5.00;;;;;;;14.74;81.03;94010.72;4896953;29;20505;-48
2022/05/16 05:05:30;;;;;;;8.20;5.07;;;;;;;14.88;79.79;94022.56;4897533;29;20152;-48
2022/05/16 05:07:57;;;;;;;8.52;4.80;;;;;;;14.86;79.81;94020.22;4896799;29;20049;-50
2022/05/16 05:16:06;;;;;;;9.00;4.60;;;;;;;14.88;80.27;94045.44;4896825;29;20648;-51
2022/05/16 05:18:33;;;;;;;7.00;4.75;;;;;;;14.92;80.54;94045.34;4897473;29;20409;-50
2022/05/16 05:21:00;;;;;;;8.48;5.35;;;;;;;14.95;80.23;94049.97;4897914;29;20076;-51
2022/05/16 05:23:26;;;;;;;6.90;4.80;;;;;;;14.92;80.28;94056.38;4901203;29;20122;-50
2022/05/16 05:25:53;;;;;;;8.07;5.07;;;;;;;14.78;79.71;94058.34;4916649;29;20048;-50
2022/05/16 05:28:20;;;;;;;8.73;4.70;;;;;;;14.83;79.79;94057.03;4916297;29;20047;-51
2022/05/16 05:30:46;;;;;;;7.43;4.68;;;;;;;14.96;78.81;94059.81;4916321;29;20040;-50
2022/05/16 05:33:13;;;;;;;8.02;4.60;;;;;;;15.21;77.55;94061.03;4915969;29;20052;-46
2022/05/16 05:35:41;;;;;;;8.05;4.63;;;;;;;15.41;76.64;94061.59;4916080;29;20050;-54
2022/05/16 05:38:09;;;;;;;7.35;4.60;;;;;;;15.59;76.71;94066.56;4916412;29;20444;-51
2022/05/16 05:40:37;;;;;;;9.90;4.33;;;;;;;15.92;75.94;94064.31;4915554;29;20952;-50
2022/05/16 05:43:05;;;;;;;7.65;4.10;;;;;;;16.21;75.12;94060.56;4916307;29;20066;-47
2022/05/16 05:45:33;;;;;;;6.50;4.32;;;;;;;16.46;73.28;94067.22;4915390;29;20631;-50
2022/05/16 05:48:00;;;;;;;6.82;4.32;;;;;;;16.63;72.85;94067.84;4916388;29;20040;-51
2022/05/16 05:50:27;;;;;;;8.35;4.70;;;;;;;16.99;71.38;94069.31;4915526;29;20074;-50
2022/05/16 05:52:54;;;;;;;8.80;4.90;;;;;;;17.15;69.70;94078.19;4916075;29;20060;-52
2022/05/16 05:55:20;;;;;;;8.63;4.55;;;;;;;18.05;67.74;94079.44;4914370;29;20042;-50
2022/05/16 05:57:48;;;;;;;7.13;4.55;;;;;;;17.96;67.01;94080.19;4914777;29;20044;-52
2022/05/16 06:00:15;;;;;;;7.63;4.80;;;;;;;18.30;64.97;94081.94;4915524;29;20056;-52
2022/05/16 06:02:43;;;;;;;7.45;5.03;;;;;;;18.31;64.46;94091.84;4916034;29;20048;-52
2022/05/16 06:05:13;;;;;;;7.53;4.70;;;;;;;17.77;65.61;94084.91;4916117;29;20051;-52
2022/05/16 06:07:40;;;;;;;6.90;4.53;;;;;;;19.63;61.25;94086.38;4914956;29;20449;-54
2022/05/16 06:10:08;;;;;;;6.28;4.38;;;;;;;21.39;55.67;94085.88;4914005;29;20042;-49
2022/05/16 06:12:35;;;;;;;6.70;4.10;;;;;;;21.63;53.10;94089.38;4897304;29;20055;-48
2022/05/16 06:15:03;;;;;;;6.88;4.38;;;;;;;22.66;51.98;94084.72;4901444;29;20063;-54
2022/05/16 06:17:30;;;;;;;6.93;3.63;;;;;;;24.71;46.47;94092.25;4901510;29;20053;-50
2022/05/16 06:19:57;;;;;;;5.10;3.10;;;;;;;24.55;45.67;94092.16;4896525;29;20057;-49
2022/05/16 06:22:24;;;;;;;5.13;3.17;;;;;;;24.19;46.67;94094.50;4895917;29;20048;-50
2022/05/16 06:27:36;;;;;;;6.35;3.28;;;;;;;23.37;48.18;94101.25;4895272;29;20627;-55
2022/05/16 06:30:03;;;;;;;5.47;3.13;;;;;;;22.57;49.80;94100.84;4896616;29;20058;-52
2022/05/16 06:32:35;;;;;;;4.65;3.08;;;;;;;21.91;52.90;94100.19;4895657;29;20755;-54
2022/05/16 06:35:02;;;;;;;6.15;3.22;;;;;;;22.00;52.09;94093.72;4895398;29;20048;-52
2022/05/16 06:37:29;;;;;;;5.18;2.88;;;;;;;21.34;53.41;94099.25;4895620;29;20418;-49
2022/05/16 06:39:56;;;;;;;5.57;3.22;;;;;;;21.17;54.09;94106.59;4896474;29;20048;-46
2022/05/16 06:42:23;;;;;;;6.03;3.00;;;;;;;22.54;50.72;94106.16;4895670;29;20044;-48
2022/05/16 06:44:52;;;;;;;5.82;3.10;;;;;;;22.34;51.18;94106.94;4894799;29;20040;-52
2022/05/16 06:47:19;;;;;;;5.05;3.33;;;;;;;21.67;53.40;94119.88;4895696;29;20040;-49
2022/05/16 06:49:46;;;;;;;4.82;3.20;;;;;;;21.80;53.05;94119.59;4895948;29;20053;-51
2022/05/16 06:52:12;;;;;;;5.50;3.30;;;;;;;21.98;52.58;94113.75;4895653;29;20053;-48
2022/05/16 06:54:39;;;;;;;5.67;3.20;;;;;;;21.31;54.25;94111.41;4896230;29;20048;-48
2022/05/16 06:57:06;;;;;;;6.70;3.40;;;;;;;20.48;56.98;94120.47;4910564;29;20040;-49
2022/05/16 06:59:33;;;;;;;5.90;3.30;;;;;;;20.56;57.29;94123.66;4895478;29;20045;-50
2022/05/16 07:01:59;;;;;;;6.10;3.60;;;;;;;20.11;58.44;94133.84;4895821;29;20059;-48
2022/05/16 07:04:26;;;;;;;7.90;3.67;;;;;;;19.71;59.55;94121.03;4895311;29;20181;-53
2022/05/16 07:06:53;;;;;;;9.90;3.47;;;;;;;20.48;57.73;94126.03;4895968;29;20044;-50
2022/05/16 07:09:19;;;;;;;5.85;3.55;;;;;;;21.07;55.44;94121.88;4895637;29;20052;-54
2022/05/16 07:11:46;;;;;;;4.93;3.50;;;;;;;21.60;54.14;94120.28;4900912;29;20059;-49
2022/05/16 07:14:13;;;;;;;8.90;3.30;;;;;;;23.00;50.18;94127.06;4903075;29;20040;-49
2022/05/16 07:16:40;;;;;;;5.82;3.40;;;;;;;24.05;47.61;94122.19;4895385;29;20040;-51
2022/05/16 07:19:07;;;;;;;5.70;3.17;;;;;;;25.22;45.03;94125.34;4895736;29;20616;-53
2022/05/16 07:21:34;;;;;;;4.80;3.20;;;;;;;27.54;40.31;94129.31;4895198;29;20067;-53
2022/05/16 07:24:01;;;;;;;5.75;3.35;;;;;;;27.73;38.64;94132.28;4904009;29;20044;-50
2022/05/16 07:29:13;;;;;;;4.63;3.08;;;;;;;27.02;39.28;94141.34;4914014;29;20048;-50
2022/05/16 07:31:40;;;;;;;4.70;3.17;;;;;;;26.37;40.22;94139.72;4914300;29;20043;-54
2022/05/16 07:34:13;;;;;;;5.30;3.30;;;;;;;26.55;40.52;94144.06;4914335;29;20036;-47
2022/05/16 07:36:40;;;;;;;4.80;3.20;;;;;;;24.76;43.82;94146.09;4914281;29;20040;-50
2022/05/16 07:39:06;;;;;;;5.13;3.38;;;;;;;26.29;41.53;94145.13;4914179;29;20433;-47
2022/05/16 07:41:33;;;;;;;5.95;3.47;;;;;;;25.04;43.56;94141.34;4913873;29;20048;-49
2022/05/16 07:44:00;;;;;;;5.13;3.33;;;;;;;23.68;46.59;94144.53;4914191;29;20063;-53
2022/05/16 07:46:27;;;;;;;8.38;3.55;;;;;;;23.42;48.33;94139.75;4913715;29;20059;-52
2022/05/16 07:48:53;;;;;;;6.18;3.70;;;;;;;24.61;46.15;94141.44;4914420;29;20387;-51
2022/05/16 07:51:20;;;;;;;5.47;3.75;;;;;;;25.82;42.61;94134.38;4913914;29;20040;-51
2022/05/16 07:53:47;;;;;;;5.45;3.88;;;;;;;25.69;43.31;94132.06;4914081;29;20066;-54
2022/05/16 07:56:14;;;;;;;5.40;3.90;;;;;;;25.79;43.32;94120.56;4913645;29;20363;-50
2022/05/16 07:58:40;;;;;;;6.25;3.67;;;;;;;25.99;42.01;94134.41;4914254;29;20405;-51
2022/05/16 08:01:07;;;;;;;5.20;3.35;;;;;;;26.86;41.39;94131.69;4914242;29;20055;-47
2022/05/16 08:03:34;;;;;;;5.75;3.72;;;;;;;29.02;37.51;94121.81;4913645;29;20054;-51
2022/05/16 08:06:01;;;;;;;5.35;3.72;;;;;;;28.65;37.05;94123.28;4914100;29;20056;-53
2022/05/16 08:11:14;;;;;;;6.53;3.92;;;;;;;26.41;41.15;94126.94;4906448;29;20048;-50
2022/05/16 08:13:41;;;;;;;5.55;3.50;;;;;;;27.62;38.96;94132.34;4905993;29;20051;-51
2022/05/16 08:16:09;;;;;;;8.73;3.75;;;;;;;27.98;38.37;94143.66;4894970;29;20045;-54
2022/05/16 08:18:36;;;;;;;6.45;4.03;;;;;;;24.08;46.17;94145.66;4893978;29;20705;-53
2022/05/16 08:21:03;;;;;;;6.67;3.90;;;;;;;25.04;43.49;94143.41;4894893;29;20041;-50
2022/05/16 08:23:30;;;;;;;7.45;4.03;;;;;;;25.67;42.22;94131.03;4898545;29;20048;-52
2022/05/16 08:26:04;;;;;;;7.10;3.95;;;;;;;27.42;39.36;94141.94;4913661;29;20044;-52
2022/05/16 08:28:32;;;;;;;6.38;4.05;;;;;;;27.41;40.48;94149.66;4913109;29;20114;-51
2022/05/16 08:30:59;;;;;;;7.68;4.25;;;;;;;27.86;39.41;94142.94;4913833;29;20044;-51
2022/05/16 08:33:26;;;;;;;6.67;3.87;;;;;;;27.15;39.30;94146.44;4915323;29;20051;-48
2022/05/16 08:41:30;;;;;;;6.53;4.32;;;;;;;27.68;39.26;94153.56;4916857;29;20044;-50
2022/05/16 08:44:03;;;;;;;7.00;4.20;;;;;;;27.11;40.73;94157.97;4917279;29;20044;-52
2022/05/16 08:46:44;;;;;;;7.43;4.30;;;;;;;25.74;43.73;94169.13;4916891;29;20058;-53
2022/05/16 08:49:17;;;;;;;6.45;4.32;;;;;;;26.31;43.21;94168.63;4916927;29;20485;-48
2022/05/16 08:51:51;;;;;;;7.35;4.50;;;;;;;25.24;45.80;94168.50;4917056;29;20050;-52
2022/05/16 08:54:25;;;;;;;7.70;4.50;;;;;;;25.93;43.24;94163.81;4916448;29;20047;-49
2022/05/16 08:56:53;;;;;;;8.88;4.75;;;;;;;23.32;49.56;94178.34;4917231;29;20062;-50
2022/05/16 08:59:24;;;;;;;9.63;5.03;;;;;;;22.81;51.65;94165.00;4916556;29;20060;-52
2022/05/16 09:02:08;;;;;;;7.85;4.47;;;;;;;25.65;45.13;94168.06;4917018;29;20412;-51
2022/05/16 09:04:58;;;;;;;6.72;4.28;;;;;;;26.80;40.77;94171.16;4916055;29;20854;-54
2022/05/16 09:07:34;;;;;;;9.93;4.60;;;;;;;27.47;40.56;94167.28;4880333;29;20044;-52
2022/05/16 09:10:07;;;;;;;8.02;4.20;;;;;;;26.59;41.13;94172.72;4916857;29;20042;-55
2022/05/16 09:12:37;;;;;;;8.90;4.30;;;;;;;26.62;40.92;94178.09;4905502;29;20054;-50
2022/05/16 09:15:34;;;;;;;7.50;4.50;;;;;;;26.50;40.68;94168.88;4916646;29;20040;-49
2022/05/16 09:18:37;;;;;;;9.23;4.70;;;;;;;24.68;45.50;94182.28;4896498;29;20863;-52
2022/05/16 09:21:16;;;;;;;7.68;4.18;;;;;;;25.15;44.72;94174.31;4897681;29;20055;-50
2022/05/16 09:23:52;;;;;;;6.93;4.60;;;;;;;24.34;47.28;94168.00;4895745;29;20051;-47
2022/05/16 09:26:21;;;;;;;7.67;4.30;;;;;;;24.00;48.37;94175.41;4897261;29;20058;-50
2022/05/16 09:28:58;;;;;;;7.22;4.72;;;;;;;24.03;49.45;94180.03;4880817;29;20044;-49
2022/05/16 09:31:32;;;;;;;6.60;4.60;;;;;;;25.69;44.77;94167.84;4897104;29;20049;-52
2022/05/16 09:34:00;;;;;;;8.98;4.60;;;;;;;24.32;47.41;94178.97;4897738;29;20036;-50
2022/05/16 09:36:40;;;;;;;7.65;4.45;;;;;;;25.14;45.46;94174.84;4897034;29;20417;-50
2022/05/16 09:39:09;;;;;;;12.00;4.83;;;;;;;24.54;47.31;94178.38;4897497;29;20468;-51
2022/05/16 09:41:48;;;;;;;7.72;4.50;;;;;;;23.57;50.29;94178.06;4879740;29;20055;-47
2022/05/16 09:44:21;;;;;;;11.57;6.45;;;;;;;24.77;45.48;94184.09;4895820;29;20041;-47
2022/05/16 09:46:49;;;;;;;9.32;5.25;;;;;;;25.95;43.73;94178.88;4897281;29;20044;-54
2022/05/16 09:49:25;;;;;;;11.40;5.47;;;;;;;25.12;44.57;94186.56;4896669;29;20534;-50
2022/05/16 09:51:57;;;;;;;9.77;5.07;;;;;;;23.83;46.71;94189.31;4897195;29;20080;-52
2022/05/16 09:54:31;;;;;;;7.45;4.65;;;;;;;22.80;49.92;94197.00;4896737;29;20041;-49
2022/05/16 09:57:03;;;;;;;10.10;4.90;;;;;;;22.44;51.23;94199.84;4897279;29;20421;-48
2022/05/16 09:59:38;;;;;;;9.05;5.07;;;;;;;22.12;51.71;94201.63;4896319;29;20157;-49
2022/05/16 10:02:26;;;;;;;8.95;5.07;;;;;;;22.23;51.76;94201.03;4896982;29;20048;-53
2022/05/16 10:05:02;;;;;;;9.40;5.00;;;;;;;22.03;52.15;94210.13;4896167;29;20935;-54
2022/05/16 10:07:45;;;;;;;10.15;5.57;;;;;;;21.52;53.66;94214.84;4896464;29;20041;-49
2022/05/16 10:10:16;;;;;;;13.75;7.20;;;;;;;21.46;54.53;94227.94;4896310;29;20079;-49
2022/05/16 10:12:44;;;;;;;12.25;7.47;;;;;;;21.05;55.04;94231.19;4896831;29;20041;-50
2022/05/16 10:15:11;;;;;;;9.55;5.15;;;;;;;21.34;54.03;94233.25;4879345;29;20045;-49
2022/05/16 10:17:40;;;;;;;9.10;5.10;;;;;;;21.47;54.04;94232.25;4914213;29;20070;-49
2022/05/16 10:20:20;;;;;;;10.77;4.72;;;;;;;21.49;53.84;94229.75;4915688;29;20099;-49
2022/05/16 10:22:53;;;;;;;9.85;4.68;;;;;;;21.19;51.49;94224.09;4914666;29;20878;-50
2022/05/16 10:25:48;;;;;;;9.68;4.30;;;;;;;21.45;52.01;94223.59;4877049;29;20558;-48
2022/05/16 10:28:21;;;;;;;9.65;4.43;;;;;;;20.40;56.64;94221.63;4877327;29;20048;-48
2022/05/16 10:33:37;;;;;;;10.13;4.00;;;;;;;21.10;55.57;94236.09;4877238;29;20064;-51
2022/05/16 10:36:16;;;;;;;7.90;4.07;;;;;;;21.40;55.64;94236.16;4876534;29;20045;-47
2022/05/16 10:38:52;;;;;;;8.10;3.97;;;;;;;21.65;56.31;94240.47;4876937;29;20243;-49
2022/05/16 10:41:25;;;;;;;9.05;4.50;;;;;;;21.83;54.23;94227.56;4876936;29;20041;-50
2022/05/16 10:44:02;;;;;;;7.30;3.60;;;;;;;22.23;52.82;94221.34;4878304;29;20045;-48
2022/05/16 10:46:34;;;;;;;8.18;3.90;;;;;;;22.74;51.38;94222.91;4881456;29;20621;-51
2022/05/16 10:49:18;;;;;;;10.15;4.20;;;;;;;23.57;51.16;94228.50;4879498;29;20108;-52
2022/05/16 10:51:47;;;;;;;9.05;3.70;;;;;;;23.85;51.04;94240.03;4895084;29;20843;-54
2022/05/16 10:54:33;;;;;;;8.10;3.67;;;;;;;24.42;47.13;94242.03;4895522;29;20036;-49
2022/05/16 10:57:22;;;;;;;7.40;4.13;;;;;;;25.47;45.44;94253.66;4879179;29;20044;-53
2022/05/16 11:00:10;;;;;;;8.98;4.22;;;;;;;25.31;44.81;94257.13;4894862;29;21726;-49
2022/05/16 11:03:15;;;;;;;8.02;3.90;;;;;;;24.98;47.14;94252.13;4887516;29;20170;-50
2022/05/16 11:06:35;;;;;;;7.55;4.18;;;;;;;24.77;47.61;94245.84;4888694;29;21626;-50
2022/05/16 11:09:06;;;;;;;12.45;4.22;;;;;;;23.33;49.42;94247.06;4863491;29;21755;-49
2022/05/16 11:12:06;;;;;;;9.60;4.60;;;;;;;22.23;51.65;94243.72;4895393;29;20052;-52
2022/05/16 11:15:07;;;;;;;8.10;4.15;;;;;;;22.77;49.16;94253.97;4895086;29;20044;-54
2022/05/16 11:17:47;;;;;;;9.48;4.03;;;;;;;23.60;47.94;94245.06;4896560;29;20040;-52
2022/05/16 11:20:26;;;;;;;7.85;4.00;;;;;;;23.41;47.75;94235.47;4914225;29;20047;-51
2022/05/16 11:23:01;;;;;;;7.40;4.03;;;;;;;23.87;48.10;94243.88;4914505;29;20123;-54
2022/05/16 11:25:39;;;;;;;7.37;4.43;;;;;;;23.97;46.95;94241.66;4895198;29;20045;-51
2022/05/16 11:28:23;;;;;;;8.40;4.47;;;;;;;23.37;47.75;94234.91;4895938;29;20047;-51
2022/05/16 11:30:59;;;;;;;7.38;3.75;;;;;;;23.19;47.25;94239.53;4888951;29;20740;-48
2022/05/16 11:33:47;;;;;;;7.55;3.60;;;;;;;23.09;47.35;94238.91;4895000;29;20548;-47
2022/05/16 11:37:05;;;;;;;6.63;2.97;;;;;;;24.08;44.55;94243.78;4895031;29;20047;-47
2022/05/16 11:39:51;;;;;;;7.53;2.90;;;;;;;24.69;43.25;94239.97;4892298;29;20070;-51
2022/05/16 11:42:33;;;;;;;7.40;3.00;;;;;;;23.92;43.84;94225.56;4894630;29;20045;-48
2022/05/16 11:45:31;;;;;;;6.95;3.50;;;;;;;23.32;45.73;94230.75;4897572;29;20067;-49
2022/05/16 11:48:16;;;;;;;5.93;3.10;;;;;;;23.07;46.67;94219.03;4900879;29;21705;-48
2022/05/16 11:51:18;;;;;;;5.95;3.20;;;;;;;23.84;45.16;94216.81;4894331;29;21824;-50
2022/05/16 11:53:49;;;;;;;7.37;2.90;;;;;;;23.74;45.18;94212.63;4894384;29;21747;-53
2022/05/16 12:10:13;;;;;;;4.37;2.37;;;;;;;24.28;43.35;94198.06;4897588;29;21334;-49
2022/05/16 12:12:46;;;;;;;5.53;2.20;;;;;;;24.44;42.42;94185.41;4897735;29;20418;-51
2022/05/16 12:15:23;;;;;;;4.88;2.60;;;;;;;24.08;43.00;94194.09;4898502;29;20493;-48
2022/05/16 12:18:21;;;;;;;6.25;2.50;;;;;;;23.74;44.15;94198.59;4898950;29;20401;-48
2022/05/16 12:20:50;;;;;;;5.88;2.60;;;;;;;23.86;45.15;94188.28;4892326;29;20753;-49
2022/05/16 12:23:49;;;;;;;7.10;3.00;;;;;;;24.03;43.97;94180.03;4901004;29;20071;-47
2022/05/16 12:26:28;;;;;;;6.05;2.90;;;;;;;23.49;44.40;94174.94;4916971;29;20040;-52
2022/05/16 12:29:10;;;;;;;7.32;2.70;;;;;;;24.12;43.92;94177.78;4916465;29;20052;-47
2022/05/16 12:31:48;;;;;;;6.90;2.75;;;;;;;24.15;43.94;94181.66;4916605;29;20048;-48
2022/05/16 12:34:30;;;;;;;4.70;2.72;;;;;;;24.03;43.92;94180.03;4917069;29;20070;-47
2022/05/16 12:36:59;;;;;;;5.63;2.50;;;;;;;24.28;43.21;94179.19;4917560;29;20114;-49
2022/05/16 12:40:02;;;;;;;5.35;2.60;;;;;;;24.40;43.64;94174.44;4916961;29;20110;-53